sensor_id;sensor_type;location;lat;lon;timestamp;P1;durP1;ratioP1;P2;durP2;ratioP2
15913;SDS011;8055;51.930;8.840;2023-04-08T00:01:00;13.73;;;8.43;;
15913;SDS011;8055;51.930;8.840;2023-04-08T00:03:25;11.52;;;7.65;;
15913;SDS011;8055;51.930;8.840;2023-04-08T00:05:51;13.43;;;8.95;;
15913;SDS011;8055;51.930;8.840;2023-04-08T00:08:16;12.45;;;8.70;;
15913;SDS011;8055;51.930;8.840;2023-04-08T00:10:41;10.50;;;7.72;;
15913;SDS011;8055;51.930;8.840;2023-04-08T00:13:07;10.77;;;6.95;;
15913;SDS011;8055;51.930;8.840;2023-04-08T00:15:32;13.20;;;8.93;;
15913;SDS011;8055;51.930;8.840;2023-04-08T00:17:58;11.63;;;8.15;;
15913;SDS011;8055;51.930;8.840;2023-04-08T00:20:23;13.93;;;7.57;;
15913;SDS011;8055;51.930;8.840;2023-04-08T00:22:49;9.27;;;7.13;;
15913;SDS011;8055;51.930;8.840;2023-04-08T00:25:14;12.85;;;8.32;;
15913;SDS011;8055;51.930;8.840;2023-04-08T00:27:40;12.35;;;8.82;;
15913;SDS011;8055;51.930;8.840;2023-04-08T00:30:05;17.38;;;7.90;;
15913;SDS011;8055;51.930;8.840;2023-04-08T00:32:31;8.95;;;6.50;;
15913;SDS011;8055;51.930;8.840;2023-04-08T00:34:57;11.48;;;7.28;;
15913;SDS011;8055;51.930;8.840;2023-04-08T00:37:22;9.55;;;6.47;;
15913;SDS011;8055;51.930;8.840;2023-04-08T00:39:49;9.32;;;6.20;;
15913;SDS011;8055;51.930;8.840;2023-04-08T00:42:15;9.25;;;6.80;;
15913;SDS011;8055;51.930;8.840;2023-04-08T00:44:41;7.90;;;5.97;;
15913;SDS011;8055;51.930;8.840;2023-04-08T00:47:07;9.05;;;6.68;;
15913;SDS011;8055;51.930;8.840;2023-04-08T00:49:36;10.38;;;6.40;;
15913;SDS011;8055;51.930;8.840;2023-04-08T00:52:02;7.75;;;6.10;;
15913;SDS011;8055;51.930;8.840;2023-04-08T00:54:27;8.35;;;6.20;;
15913;SDS011;8055;51.930;8.840;2023-04-08T00:56:54;9.05;;;6.20;;
15913;SDS011;8055;51.930;8.840;2023-04-08T00:59:20;10.43;;;6.95;;
15913;SDS011;8055;51.930;8.840;2023-04-08T01:01:56;11.23;;;6.50;;
15913;SDS011;8055;51.930;8.840;2023-04-08T01:10:17;8.77;;;6.07;;
15913;SDS011;8055;51.930;8.840;2023-04-08T01:12:51;8.57;;;6.13;;
15913;SDS011;8055;51.930;8.840;2023-04-08T01:15:19;7.57;;;5.63;;
15913;SDS011;8055;51.930;8.840;2023-04-08T01:17:46;8.88;;;6.57;;
15913;SDS011;8055;51.930;8.840;2023-04-08T01:20:16;9.57;;;6.80;;
15913;SDS011;8055;51.930;8.840;2023-04-08T01:22:56;8.68;;;6.10;;
15913;SDS011;8055;51.930;8.840;2023-04-08T01:25:35;13.20;;;6.05;;
15913;SDS011;8055;51.930;8.840;2023-04-08T01:28:12;7.18;;;5.53;;
15913;SDS011;8055;51.930;8.840;2023-04-08T01:30:40;9.15;;;6.38;;
15913;SDS011;8055;51.930;8.840;2023-04-08T01:33:07;10.07;;;6.03;;
15913;SDS011;8055;51.930;8.840;2023-04-08T01:35:36;9.00;;;5.68;;
15913;SDS011;8055;51.930;8.840;2023-04-08T01:38:02;9.18;;;5.95;;
15913;SDS011;8055;51.930;8.840;2023-04-08T01:40:31;9.13;;;6.30;;
15913;SDS011;8055;51.930;8.840;2023-04-08T01:42:59;8.52;;;6.05;;
15913;SDS011;8055;51.930;8.840;2023-04-08T01:45:25;9.32;;;5.72;;
15913;SDS011;8055;51.930;8.840;2023-04-08T01:47:52;9.98;;;7.05;;
15913;SDS011;8055;51.930;8.840;2023-04-08T01:50:18;9.07;;;6.85;;
15913;SDS011;8055;51.930;8.840;2023-04-08T01:52:45;9.82;;;7.38;;
15913;SDS011;8055;51.930;8.840;2023-04-08T01:55:13;10.02;;;7.25;;
15913;SDS011;8055;51.930;8.840;2023-04-08T01:57:38;8.98;;;6.80;;
15913;SDS011;8055;51.930;8.840;2023-04-08T02:00:08;11.15;;;7.07;;
15913;SDS011;8055;51.930;8.840;2023-04-08T02:02:36;7.90;;;6.20;;
15913;SDS011;8055;51.930;8.840;2023-04-08T02:05:05;12.02;;;7.18;;
15913;SDS011;8055;51.930;8.840;2023-04-08T02:07:31;8.80;;;6.70;;
15913;SDS011;8055;51.930;8.840;2023-04-08T02:09:56;9.82;;;6.30;;
15913;SDS011;8055;51.930;8.840;2023-04-08T02:12:21;7.75;;;6.30;;
15913;SDS011;8055;51.930;8.840;2023-04-08T02:14:47;10.48;;;7.07;;
15913;SDS011;8055;51.930;8.840;2023-04-08T02:17:18;8.65;;;6.93;;
15913;SDS011;8055;51.930;8.840;2023-04-08T02:20:10;9.75;;;6.80;;
15913;SDS011;8055;51.930;8.840;2023-04-08T02:25:24;12.93;;;7.88;;
15913;SDS011;8055;51.930;8.840;2023-04-08T02:27:53;9.05;;;6.75;;
15913;SDS011;8055;51.930;8.840;2023-04-08T02:30:19;9.85;;;7.55;;
15913;SDS011;8055;51.930;8.840;2023-04-08T02:32:46;9.48;;;6.55;;
15913;SDS011;8055;51.930;8.840;2023-04-08T02:35:13;15.95;;;6.75;;
15913;SDS011;8055;51.930;8.840;2023-04-08T02:37:40;8.07;;;6.32;;
15913;SDS011;8055;51.930;8.840;2023-04-08T02:40:22;10.48;;;6.35;;
15913;SDS011;8055;51.930;8.840;2023-04-08T02:42:48;8.80;;;7.07;;
15913;SDS011;8055;51.930;8.840;2023-04-08T02:45:14;9.52;;;7.00;;
15913;SDS011;8055;51.930;8.840;2023-04-08T02:47:39;8.85;;;6.88;;
15913;SDS011;8055;51.930;8.840;2023-04-08T02:50:05;9.60;;;6.53;;
15913;SDS011;8055;51.930;8.840;2023-04-08T02:52:31;9.38;;;6.00;;
15913;SDS011;8055;51.930;8.840;2023-04-08T02:54:56;12.52;;;6.75;;
15913;SDS011;8055;51.930;8.840;2023-04-08T02:57:21;8.23;;;6.15;;
15913;SDS011;8055;51.930;8.840;2023-04-08T02:59:47;7.82;;;6.10;;
15913;SDS011;8055;51.930;8.840;2023-04-08T03:02:12;10.65;;;6.15;;
15913;SDS011;8055;51.930;8.840;2023-04-08T03:04:37;10.25;;;6.68;;
15913;SDS011;8055;51.930;8.840;2023-04-08T03:07:03;9.82;;;6.78;;
15913;SDS011;8055;51.930;8.840;2023-04-08T03:09:28;14.38;;;6.68;;
15913;SDS011;8055;51.930;8.840;2023-04-08T03:11:53;9.07;;;6.70;;
15913;SDS011;8055;51.930;8.840;2023-04-08T03:14:19;9.05;;;6.45;;
15913;SDS011;8055;51.930;8.840;2023-04-08T03:16:46;10.32;;;6.43;;
15913;SDS011;8055;51.930;8.840;2023-04-08T03:19:11;8.65;;;6.55;;
15913;SDS011;8055;51.930;8.840;2023-04-08T03:21:37;13.35;;;7.20;;
15913;SDS011;8055;51.930;8.840;2023-04-08T03:24:02;9.00;;;6.60;;
15913;SDS011;8055;51.930;8.840;2023-04-08T03:26:28;9.98;;;6.65;;
15913;SDS011;8055;51.930;8.840;2023-04-08T03:28:53;10.20;;;7.35;;
15913;SDS011;8055;51.930;8.840;2023-04-08T03:31:18;8.75;;;6.38;;
15913;SDS011;8055;51.930;8.840;2023-04-08T03:33:45;9.02;;;6.43;;
15913;SDS011;8055;51.930;8.840;2023-04-08T03:36:11;11.10;;;7.07;;
15913;SDS011;8055;51.930;8.840;2023-04-08T03:38:36;8.90;;;7.22;;
15913;SDS011;8055;51.930;8.840;2023-04-08T03:41:02;9.25;;;7.03;;
15913;SDS011;8055;51.930;8.840;2023-04-08T03:43:27;8.18;;;6.72;;
15913;SDS011;8055;51.930;8.840;2023-04-08T03:45:52;10.18;;;6.57;;
15913;SDS011;8055;51.930;8.840;2023-04-08T03:48:18;11.95;;;7.75;;
15913;SDS011;8055;51.930;8.840;2023-04-08T03:50:43;6.88;;;5.88;;
15913;SDS011;8055;51.930;8.840;2023-04-08T03:53:08;8.38;;;6.55;;
15913;SDS011;8055;51.930;8.840;2023-04-08T03:55:36;9.35;;;7.13;;
15913;SDS011;8055;51.930;8.840;2023-04-08T03:58:01;10.38;;;6.85;;
15913;SDS011;8055;51.930;8.840;2023-04-08T04:00:27;10.70;;;7.35;;
15913;SDS011;8055;51.930;8.840;2023-04-08T04:02:52;9.95;;;7.47;;
15913;SDS011;8055;51.930;8.840;2023-04-08T04:05:19;12.63;;;8.63;;
15913;SDS011;8055;51.930;8.840;2023-04-08T04:07:44;9.43;;;7.35;;
15913;SDS011;8055;51.930;8.840;2023-04-08T04:10:10;11.20;;;7.90;;
15913;SDS011;8055;51.930;8.840;2023-04-08T04:12:36;15.55;;;8.63;;
15913;SDS011;8055;51.930;8.840;2023-04-08T04:15:01;9.05;;;7.20;;
15913;SDS011;8055;51.930;8.840;2023-04-08T04:17:26;11.57;;;7.38;;
15913;SDS011;8055;51.930;8.840;2023-04-08T04:19:52;10.63;;;7.13;;
15913;SDS011;8055;51.930;8.840;2023-04-08T04:22:17;10.70;;;7.90;;
15913;SDS011;8055;51.930;8.840;2023-04-08T04:24:46;9.43;;;7.30;;
15913;SDS011;8055;51.930;8.840;2023-04-08T04:27:12;10.75;;;7.45;;
15913;SDS011;8055;51.930;8.840;2023-04-08T04:29:38;11.02;;;6.70;;
15913;SDS011;8055;51.930;8.840;2023-04-08T04:32:04;11.95;;;7.50;;
15913;SDS011;8055;51.930;8.840;2023-04-08T04:34:30;10.52;;;7.30;;
15913;SDS011;8055;51.930;8.840;2023-04-08T04:36:56;12.13;;;8.27;;
15913;SDS011;8055;51.930;8.840;2023-04-08T04:39:21;10.55;;;7.60;;
15913;SDS011;8055;51.930;8.840;2023-04-08T04:41:47;11.50;;;7.63;;
15913;SDS011;8055;51.930;8.840;2023-04-08T04:44:13;18.70;;;13.43;;
15913;SDS011;8055;51.930;8.840;2023-04-08T04:46:38;17.38;;;11.73;;
15913;SDS011;8055;51.930;8.840;2023-04-08T04:49:04;13.35;;;9.18;;
15913;SDS011;8055;51.930;8.840;2023-04-08T04:51:30;12.95;;;8.18;;
15913;SDS011;8055;51.930;8.840;2023-04-08T04:53:57;13.23;;;9.02;;
15913;SDS011;8055;51.930;8.840;2023-04-08T04:56:22;11.77;;;8.52;;
15913;SDS011;8055;51.930;8.840;2023-04-08T04:58:47;10.50;;;7.97;;
15913;SDS011;8055;51.930;8.840;2023-04-08T05:01:13;10.07;;;7.70;;
15913;SDS011;8055;51.930;8.840;2023-04-08T05:03:38;12.35;;;8.48;;
15913;SDS011;8055;51.930;8.840;2023-04-08T05:06:04;11.95;;;8.05;;
15913;SDS011;8055;51.930;8.840;2023-04-08T05:08:30;10.15;;;8.13;;
15913;SDS011;8055;51.930;8.840;2023-04-08T05:10:55;11.10;;;8.35;;
15913;SDS011;8055;51.930;8.840;2023-04-08T05:13:20;12.15;;;7.78;;
15913;SDS011;8055;51.930;8.840;2023-04-08T05:15:46;11.30;;;8.32;;
15913;SDS011;8055;51.930;8.840;2023-04-08T05:18:11;10.40;;;8.13;;
15913;SDS011;8055;51.930;8.840;2023-04-08T05:20:37;13.13;;;8.93;;
15913;SDS011;8055;51.930;8.840;2023-04-08T05:23:02;12.85;;;9.15;;
15913;SDS011;8055;51.930;8.840;2023-04-08T05:25:28;11.70;;;9.02;;
15913;SDS011;8055;51.930;8.840;2023-04-08T05:27:54;12.68;;;8.93;;
15913;SDS011;8055;51.930;8.840;2023-04-08T05:30:20;13.00;;;9.18;;
15913;SDS011;8055;51.930;8.840;2023-04-08T05:32:46;15.02;;;10.85;;
15913;SDS011;8055;51.930;8.840;2023-04-08T05:35:11;13.48;;;9.77;;
15913;SDS011;8055;51.930;8.840;2023-04-08T05:37:37;14.75;;;11.05;;
15913;SDS011;8055;51.930;8.840;2023-04-08T05:40:02;16.65;;;11.73;;
15913;SDS011;8055;51.930;8.840;2023-04-08T05:42:28;22.13;;;14.18;;
15913;SDS011;8055;51.930;8.840;2023-04-08T05:44:53;20.27;;;14.10;;
15913;SDS011;8055;51.930;8.840;2023-04-08T05:47:19;21.13;;;14.95;;
15913;SDS011;8055;51.930;8.840;2023-04-08T05:49:45;23.98;;;15.50;;
15913;SDS011;8055;51.930;8.840;2023-04-08T05:52:10;27.52;;;17.65;;
15913;SDS011;8055;51.930;8.840;2023-04-08T05:54:35;27.65;;;17.88;;
15913;SDS011;8055;51.930;8.840;2023-04-08T05:57:01;29.52;;;18.52;;
15913;SDS011;8055;51.930;8.840;2023-04-08T05:59:26;26.20;;;17.73;;
15913;SDS011;8055;51.930;8.840;2023-04-08T06:01:52;27.77;;;18.20;;
15913;SDS011;8055;51.930;8.840;2023-04-08T06:04:19;27.88;;;18.40;;
15913;SDS011;8055;51.930;8.840;2023-04-08T06:06:44;28.08;;;18.45;;
15913;SDS011;8055;51.930;8.840;2023-04-08T06:09:10;27.38;;;18.67;;
15913;SDS011;8055;51.930;8.840;2023-04-08T06:11:35;31.17;;;19.50;;
15913;SDS011;8055;51.930;8.840;2023-04-08T06:14:00;26.38;;;17.95;;
15913;SDS011;8055;51.930;8.840;2023-04-08T06:16:26;22.00;;;15.35;;
15913;SDS011;8055;51.930;8.840;2023-04-08T06:18:51;24.40;;;15.73;;
15913;SDS011;8055;51.930;8.840;2023-04-08T06:21:17;20.73;;;15.20;;
15913;SDS011;8055;51.930;8.840;2023-04-08T06:23:42;20.73;;;14.65;;
15913;SDS011;8055;51.930;8.840;2023-04-08T06:26:08;19.48;;;13.57;;
15913;SDS011;8055;51.930;8.840;2023-04-08T06:28:33;21.00;;;14.25;;
15913;SDS011;8055;51.930;8.840;2023-04-08T06:30:58;17.77;;;13.70;;
15913;SDS011;8055;51.930;8.840;2023-04-08T06:33:24;21.30;;;14.43;;
15913;SDS011;8055;51.930;8.840;2023-04-08T06:35:50;20.17;;;13.98;;
15913;SDS011;8055;51.930;8.840;2023-04-08T06:38:15;17.90;;;13.15;;
15913;SDS011;8055;51.930;8.840;2023-04-08T06:40:40;20.08;;;13.25;;
15913;SDS011;8055;51.930;8.840;2023-04-08T06:43:06;19.02;;;12.35;;
15913;SDS011;8055;51.930;8.840;2023-04-08T06:45:32;18.48;;;13.27;;
15913;SDS011;8055;51.930;8.840;2023-04-08T06:47:58;19.80;;;13.75;;
15913;SDS011;8055;51.930;8.840;2023-04-08T06:50:23;16.83;;;12.18;;
15913;SDS011;8055;51.930;8.840;2023-04-08T06:52:49;18.50;;;13.02;;
15913;SDS011;8055;51.930;8.840;2023-04-08T06:55:14;19.25;;;13.75;;
15913;SDS011;8055;51.930;8.840;2023-04-08T06:57:40;19.80;;;13.02;;
15913;SDS011;8055;51.930;8.840;2023-04-08T07:00:05;20.73;;;14.10;;
15913;SDS011;8055;51.930;8.840;2023-04-08T07:02:31;21.23;;;14.48;;
15913;SDS011;8055;51.930;8.840;2023-04-08T07:04:57;20.00;;;14.02;;
15913;SDS011;8055;51.930;8.840;2023-04-08T07:07:22;19.45;;;14.32;;
15913;SDS011;8055;51.930;8.840;2023-04-08T07:09:48;20.58;;;14.80;;
15913;SDS011;8055;51.930;8.840;2023-04-08T07:12:14;19.77;;;13.75;;
15913;SDS011;8055;51.930;8.840;2023-04-08T07:14:40;21.52;;;15.38;;
15913;SDS011;8055;51.930;8.840;2023-04-08T07:17:05;18.83;;;13.93;;
15913;SDS011;8055;51.930;8.840;2023-04-08T07:19:31;24.13;;;16.23;;
15913;SDS011;8055;51.930;8.840;2023-04-08T07:21:56;23.00;;;16.23;;
15913;SDS011;8055;51.930;8.840;2023-04-08T07:24:22;20.95;;;15.38;;
15913;SDS011;8055;51.930;8.840;2023-04-08T07:26:47;21.55;;;15.65;;
15913;SDS011;8055;51.930;8.840;2023-04-08T07:29:13;22.60;;;14.88;;
15913;SDS011;8055;51.930;8.840;2023-04-08T07:31:41;22.63;;;15.68;;
15913;SDS011;8055;51.930;8.840;2023-04-08T07:34:08;23.88;;;15.35;;
15913;SDS011;8055;51.930;8.840;2023-04-08T07:36:33;22.20;;;14.95;;
15913;SDS011;8055;51.930;8.840;2023-04-08T07:38:59;21.05;;;14.57;;
15913;SDS011;8055;51.930;8.840;2023-04-08T07:41:24;21.15;;;14.30;;
15913;SDS011;8055;51.930;8.840;2023-04-08T07:43:50;23.35;;;14.75;;
15913;SDS011;8055;51.930;8.840;2023-04-08T07:46:15;20.02;;;13.55;;
15913;SDS011;8055;51.930;8.840;2023-04-08T07:48:40;25.50;;;13.25;;
15913;SDS011;8055;51.930;8.840;2023-04-08T07:51:06;17.80;;;12.55;;
15913;SDS011;8055;51.930;8.840;2023-04-08T07:53:33;21.67;;;13.05;;
15913;SDS011;8055;51.930;8.840;2023-04-08T07:55:59;23.23;;;14.32;;
15913;SDS011;8055;51.930;8.840;2023-04-08T07:58:25;20.60;;;13.57;;
15913;SDS011;8055;51.930;8.840;2023-04-08T08:00:50;18.80;;;12.45;;
15913;SDS011;8055;51.930;8.840;2023-04-08T08:03:16;18.65;;;12.32;;
15913;SDS011;8055;51.930;8.840;2023-04-08T08:05:41;19.88;;;11.95;;
15913;SDS011;8055;51.930;8.840;2023-04-08T08:08:06;17.58;;;12.18;;
15913;SDS011;8055;51.930;8.840;2023-04-08T08:10:32;18.83;;;11.27;;
15913;SDS011;8055;51.930;8.840;2023-04-08T08:12:58;17.95;;;11.65;;
15913;SDS011;8055;51.930;8.840;2023-04-08T08:15:23;19.02;;;11.82;;
15913;SDS011;8055;51.930;8.840;2023-04-08T08:17:49;19.00;;;12.48;;
15913;SDS011;8055;51.930;8.840;2023-04-08T08:20:14;19.92;;;11.73;;
15913;SDS011;8055;51.930;8.840;2023-04-08T08:22:40;20.88;;;12.38;;
15913;SDS011;8055;51.930;8.840;2023-04-08T08:25:06;20.02;;;11.30;;
15913;SDS011;8055;51.930;8.840;2023-04-08T08:27:33;18.95;;;11.50;;
15913;SDS011;8055;51.930;8.840;2023-04-08T08:29:58;16.40;;;11.20;;
15913;SDS011;8055;51.930;8.840;2023-04-08T08:32:24;18.27;;;11.73;;
15913;SDS011;8055;51.930;8.840;2023-04-08T08:34:49;18.08;;;11.77;;
15913;SDS011;8055;51.930;8.840;2023-04-08T08:37:15;20.27;;;12.15;;
15913;SDS011;8055;51.930;8.840;2023-04-08T08:39:40;17.80;;;11.10;;
15913;SDS011;8055;51.930;8.840;2023-04-08T08:42:06;17.27;;;10.40;;
15913;SDS011;8055;51.930;8.840;2023-04-08T08:44:31;17.85;;;11.40;;
15913;SDS011;8055;51.930;8.840;2023-04-08T08:46:58;19.83;;;11.23;;
15913;SDS011;8055;51.930;8.840;2023-04-08T08:49:24;18.90;;;12.20;;
15913;SDS011;8055;51.930;8.840;2023-04-08T08:51:49;18.30;;;12.35;;
15913;SDS011;8055;51.930;8.840;2023-04-08T08:54:17;17.80;;;10.32;;
15913;SDS011;8055;51.930;8.840;2023-04-08T08:56:42;19.80;;;12.20;;
15913;SDS011;8055;51.930;8.840;2023-04-08T08:59:08;19.65;;;11.23;;
15913;SDS011;8055;51.930;8.840;2023-04-08T09:01:38;18.80;;;10.63;;
15913;SDS011;8055;51.930;8.840;2023-04-08T09:04:14;20.65;;;11.50;;
15913;SDS011;8055;51.930;8.840;2023-04-08T09:06:42;17.85;;;11.23;;
15913;SDS011;8055;51.930;8.840;2023-04-08T09:09:09;20.15;;;12.05;;
15913;SDS011;8055;51.930;8.840;2023-04-08T09:11:39;20.48;;;12.15;;
15913;SDS011;8055;51.930;8.840;2023-04-08T09:16:47;16.45;;;11.30;;
15913;SDS011;8055;51.930;8.840;2023-04-08T09:19:13;15.95;;;10.50;;
15913;SDS011;8055;51.930;8.840;2023-04-08T09:21:39;21.15;;;11.85;;
15913;SDS011;8055;51.930;8.840;2023-04-08T09:24:05;16.05;;;9.95;;
15913;SDS011;8055;51.930;8.840;2023-04-08T09:26:31;16.90;;;10.82;;
15913;SDS011;8055;51.930;8.840;2023-04-08T09:31:25;19.13;;;11.20;;
15913;SDS011;8055;51.930;8.840;2023-04-08T09:33:53;18.88;;;11.02;;
15913;SDS011;8055;51.930;8.840;2023-04-08T09:36:20;21.73;;;11.55;;
15913;SDS011;8055;51.930;8.840;2023-04-08T09:38:46;21.65;;;12.30;;
15913;SDS011;8055;51.930;8.840;2023-04-08T09:41:12;17.90;;;10.63;;
15913;SDS011;8055;51.930;8.840;2023-04-08T09:43:43;21.73;;;12.77;;
15913;SDS011;8055;51.930;8.840;2023-04-08T09:46:17;16.98;;;11.30;;
15913;SDS011;8055;51.930;8.840;2023-04-08T09:51:31;22.02;;;12.52;;
15913;SDS011;8055;51.930;8.840;2023-04-08T09:54:01;22.35;;;12.82;;
15913;SDS011;8055;51.930;8.840;2023-04-08T09:56:34;24.63;;;14.18;;
15913;SDS011;8055;51.930;8.840;2023-04-08T09:59:08;23.63;;;13.77;;
15913;SDS011;8055;51.930;8.840;2023-04-08T10:01:43;22.00;;;13.60;;
15913;SDS011;8055;51.930;8.840;2023-04-08T10:04:14;24.05;;;14.13;;
15913;SDS011;8055;51.930;8.840;2023-04-08T10:06:42;22.38;;;13.13;;
15913;SDS011;8055;51.930;8.840;2023-04-08T10:09:07;24.83;;;14.07;;
15913;SDS011;8055;51.930;8.840;2023-04-08T10:11:34;23.52;;;13.88;;
15913;SDS011;8055;51.930;8.840;2023-04-08T10:14:01;24.60;;;14.25;;
15913;SDS011;8055;51.930;8.840;2023-04-08T10:16:27;23.35;;;13.02;;
15913;SDS011;8055;51.930;8.840;2023-04-08T10:18:54;25.95;;;15.23;;
15913;SDS011;8055;51.930;8.840;2023-04-08T10:24:12;24.90;;;14.35;;
15913;SDS011;8055;51.930;8.840;2023-04-08T10:26:39;24.42;;;14.40;;
15913;SDS011;8055;51.930;8.840;2023-04-08T10:31:49;24.25;;;14.52;;
15913;SDS011;8055;51.930;8.840;2023-04-08T10:34:16;26.42;;;15.57;;
15913;SDS011;8055;51.930;8.840;2023-04-08T10:36:42;25.70;;;14.70;;
15913;SDS011;8055;51.930;8.840;2023-04-08T10:39:08;23.80;;;14.05;;
15913;SDS011;8055;51.930;8.840;2023-04-08T10:41:34;25.30;;;14.65;;
15913;SDS011;8055;51.930;8.840;2023-04-08T10:44:02;24.17;;;14.85;;
15913;SDS011;8055;51.930;8.840;2023-04-08T10:46:28;26.42;;;15.40;;
15913;SDS011;8055;51.930;8.840;2023-04-08T10:48:58;25.27;;;15.30;;
15913;SDS011;8055;51.930;8.840;2023-04-08T10:51:25;27.52;;;16.15;;
15913;SDS011;8055;51.930;8.840;2023-04-08T10:53:56;23.55;;;14.75;;
15913;SDS011;8055;51.930;8.840;2023-04-08T10:56:30;24.20;;;15.75;;
15913;SDS011;8055;51.930;8.840;2023-04-08T10:58:55;28.35;;;17.88;;
15913;SDS011;8055;51.930;8.840;2023-04-08T11:01:21;27.10;;;16.58;;
15913;SDS011;8055;51.930;8.840;2023-04-08T11:03:47;27.88;;;17.80;;
15913;SDS011;8055;51.930;8.840;2023-04-08T11:06:13;30.15;;;19.00;;
15913;SDS011;8055;51.930;8.840;2023-04-08T11:08:39;37.08;;;20.60;;
15913;SDS011;8055;51.930;8.840;2023-04-08T11:11:05;36.20;;;21.15;;
15913;SDS011;8055;51.930;8.840;2023-04-08T11:13:35;36.72;;;21.40;;
15913;SDS011;8055;51.930;8.840;2023-04-08T11:16:02;31.92;;;19.65;;
15913;SDS011;8055;51.930;8.840;2023-04-08T11:18:29;28.42;;;16.75;;
15913;SDS011;8055;51.930;8.840;2023-04-08T11:20:55;30.92;;;18.65;;
15913;SDS011;8055;51.930;8.840;2023-04-08T11:23:23;33.42;;;19.52;;
15913;SDS011;8055;51.930;8.840;2023-04-08T11:25:49;33.22;;;19.95;;
15913;SDS011;8055;51.930;8.840;2023-04-08T11:28:15;33.88;;;20.88;;
15913;SDS011;8055;51.930;8.840;2023-04-08T11:30:41;36.15;;;21.63;;
15913;SDS011;8055;51.930;8.840;2023-04-08T11:33:07;35.17;;;21.05;;
15913;SDS011;8055;51.930;8.840;2023-04-08T11:35:33;34.45;;;20.55;;
15913;SDS011;8055;51.930;8.840;2023-04-08T11:37:59;37.13;;;21.13;;
15913;SDS011;8055;51.930;8.840;2023-04-08T11:40:28;37.50;;;21.83;;
15913;SDS011;8055;51.930;8.840;2023-04-08T11:42:54;30.33;;;18.58;;
15913;SDS011;8055;51.930;8.840;2023-04-08T11:45:19;29.95;;;19.23;;
15913;SDS011;8055;51.930;8.840;2023-04-08T11:47:45;31.15;;;19.08;;
15913;SDS011;8055;51.930;8.840;2023-04-08T11:50:17;25.98;;;15.85;;
15913;SDS011;8055;51.930;8.840;2023-04-08T11:52:48;28.92;;;17.45;;
15913;SDS011;8055;51.930;8.840;2023-04-08T11:55:24;29.50;;;17.75;;
15913;SDS011;8055;51.930;8.840;2023-04-08T11:58:01;30.98;;;19.15;;
15913;SDS011;8055;51.930;8.840;2023-04-08T12:00:27;29.60;;;17.85;;
15913;SDS011;8055;51.930;8.840;2023-04-08T12:02:53;32.05;;;18.73;;
15913;SDS011;8055;51.930;8.840;2023-04-08T12:05:18;26.98;;;17.42;;
15913;SDS011;8055;51.930;8.840;2023-04-08T12:07:44;29.80;;;18.80;;
15913;SDS011;8055;51.930;8.840;2023-04-08T12:10:10;27.98;;;17.38;;
15913;SDS011;8055;51.930;8.840;2023-04-08T12:12:36;31.20;;;17.85;;
15913;SDS011;8055;51.930;8.840;2023-04-08T12:15:01;24.95;;;17.02;;
15913;SDS011;8055;51.930;8.840;2023-04-08T12:17:27;30.08;;;18.10;;
15913;SDS011;8055;51.930;8.840;2023-04-08T12:19:53;27.65;;;16.83;;
15913;SDS011;8055;51.930;8.840;2023-04-08T12:22:18;27.55;;;16.65;;
15913;SDS011;8055;51.930;8.840;2023-04-08T12:24:43;34.55;;;18.98;;
15913;SDS011;8055;51.930;8.840;2023-04-08T12:27:09;27.77;;;17.00;;
15913;SDS011;8055;51.930;8.840;2023-04-08T12:29:34;26.25;;;16.92;;
15913;SDS011;8055;51.930;8.840;2023-04-08T12:32:00;31.02;;;17.90;;
15913;SDS011;8055;51.930;8.840;2023-04-08T12:34:26;30.70;;;18.45;;
15913;SDS011;8055;51.930;8.840;2023-04-08T12:36:51;33.35;;;19.25;;
15913;SDS011;8055;51.930;8.840;2023-04-08T12:39:17;31.77;;;18.02;;
15913;SDS011;8055;51.930;8.840;2023-04-08T12:41:42;32.67;;;19.17;;
15913;SDS011;8055;51.930;8.840;2023-04-08T12:44:08;31.67;;;19.08;;
15913;SDS011;8055;51.930;8.840;2023-04-08T12:46:33;30.02;;;18.77;;
15913;SDS011;8055;51.930;8.840;2023-04-08T12:48:58;32.47;;;18.75;;
15913;SDS011;8055;51.930;8.840;2023-04-08T12:51:24;34.67;;;19.90;;
15913;SDS011;8055;51.930;8.840;2023-04-08T12:53:50;37.60;;;20.08;;
15913;SDS011;8055;51.930;8.840;2023-04-08T12:56:16;34.00;;;19.27;;
15913;SDS011;8055;51.930;8.840;2023-04-08T12:58:41;35.08;;;19.23;;
15913;SDS011;8055;51.930;8.840;2023-04-08T13:01:07;33.05;;;19.85;;
15913;SDS011;8055;51.930;8.840;2023-04-08T13:03:32;34.17;;;19.40;;
15913;SDS011;8055;51.930;8.840;2023-04-08T13:05:59;36.60;;;20.70;;
15913;SDS011;8055;51.930;8.840;2023-04-08T13:08:24;36.00;;;19.98;;
15913;SDS011;8055;51.930;8.840;2023-04-08T13:10:50;34.67;;;20.08;;
15913;SDS011;8055;51.930;8.840;2023-04-08T13:13:15;40.58;;;21.83;;
15913;SDS011;8055;51.930;8.840;2023-04-08T13:15:40;34.20;;;20.45;;
15913;SDS011;8055;51.930;8.840;2023-04-08T13:18:07;35.33;;;20.58;;
15913;SDS011;8055;51.930;8.840;2023-04-08T13:20:33;40.17;;;22.42;;
15913;SDS011;8055;51.930;8.840;2023-04-08T13:22:59;42.92;;;22.80;;
15913;SDS011;8055;51.930;8.840;2023-04-08T13:25:25;37.08;;;21.95;;
15913;SDS011;8055;51.930;8.840;2023-04-08T13:27:50;36.38;;;21.05;;
15913;SDS011;8055;51.930;8.840;2023-04-08T13:30:15;38.58;;;22.52;;
15913;SDS011;8055;51.930;8.840;2023-04-08T13:32:41;39.08;;;23.02;;
15913;SDS011;8055;51.930;8.840;2023-04-08T13:35:06;34.50;;;20.75;;
15913;SDS011;8055;51.930;8.840;2023-04-08T13:37:32;39.80;;;23.48;;
15913;SDS011;8055;51.930;8.840;2023-04-08T13:39:57;40.40;;;22.60;;
15913;SDS011;8055;51.930;8.840;2023-04-08T13:42:23;38.80;;;23.00;;
15913;SDS011;8055;51.930;8.840;2023-04-08T13:44:48;39.17;;;22.10;;
15913;SDS011;8055;51.930;8.840;2023-04-08T13:47:13;42.22;;;23.83;;
15913;SDS011;8055;51.930;8.840;2023-04-08T13:49:39;34.17;;;21.48;;
15913;SDS011;8055;51.930;8.840;2023-04-08T13:52:05;41.95;;;23.48;;
15913;SDS011;8055;51.930;8.840;2023-04-08T13:54:30;44.17;;;23.35;;
15913;SDS011;8055;51.930;8.840;2023-04-08T13:56:56;38.67;;;22.77;;
15913;SDS011;8055;51.930;8.840;2023-04-08T13:59:21;42.65;;;24.15;;
15913;SDS011;8055;51.930;8.840;2023-04-08T14:01:47;43.28;;;24.17;;
15913;SDS011;8055;51.930;8.840;2023-04-08T14:04:12;41.42;;;24.10;;
15913;SDS011;8055;51.930;8.840;2023-04-08T14:06:37;39.50;;;23.40;;
15913;SDS011;8055;51.930;8.840;2023-04-08T14:09:03;37.47;;;22.33;;
15913;SDS011;8055;51.930;8.840;2023-04-08T14:11:28;38.60;;;22.55;;
15913;SDS011;8055;51.930;8.840;2023-04-08T14:13:53;38.78;;;22.77;;
15913;SDS011;8055;51.930;8.840;2023-04-08T14:16:19;42.28;;;24.00;;
15913;SDS011;8055;51.930;8.840;2023-04-08T14:18:45;42.80;;;23.55;;
15913;SDS011;8055;51.930;8.840;2023-04-08T14:21:10;38.67;;;22.50;;
15913;SDS011;8055;51.930;8.840;2023-04-08T14:23:38;40.85;;;23.75;;
15913;SDS011;8055;51.930;8.840;2023-04-08T14:26:03;37.22;;;22.67;;
15913;SDS011;8055;51.930;8.840;2023-04-08T14:28:29;36.47;;;21.65;;
15913;SDS011;8055;51.930;8.840;2023-04-08T14:30:54;38.70;;;22.48;;
15913;SDS011;8055;51.930;8.840;2023-04-08T14:33:20;37.22;;;21.80;;
15913;SDS011;8055;51.930;8.840;2023-04-08T14:35:45;35.22;;;22.58;;
15913;SDS011;8055;51.930;8.840;2023-04-08T14:38:11;30.25;;;19.63;;
15913;SDS011;8055;51.930;8.840;2023-04-08T14:40:37;35.38;;;21.52;;
15913;SDS011;8055;51.930;8.840;2023-04-08T14:43:02;34.85;;;20.85;;
15913;SDS011;8055;51.930;8.840;2023-04-08T14:45:27;37.97;;;22.88;;
15913;SDS011;8055;51.930;8.840;2023-04-08T14:47:53;40.00;;;22.85;;
15913;SDS011;8055;51.930;8.840;2023-04-08T14:50:18;37.92;;;20.60;;
15913;SDS011;8055;51.930;8.840;2023-04-08T14:52:43;34.83;;;20.67;;
15913;SDS011;8055;51.930;8.840;2023-04-08T14:55:09;34.97;;;21.77;;
15913;SDS011;8055;51.930;8.840;2023-04-08T14:57:34;33.25;;;21.45;;